sensor_id;sensor_type;location;lat;lon;timestamp;P1;durP1;ratioP1;P2;durP2;ratioP2
82952;SDS011;74888;40.196;44.560;2024-01-10T00:02:13;13.10;;;7.15;;
82952;SDS011;74888;40.196;44.560;2024-01-10T00:04:39;13.80;;;7.85;;
82952;SDS011;74888;40.196;44.560;2024-01-10T00:07:06;13.63;;;7.40;;
82952;SDS011;74888;40.196;44.560;2024-01-10T00:09:32;16.40;;;7.47;;
82952;SDS011;74888;40.196;44.560;2024-01-10T00:11:57;14.23;;;7.15;;
82952;SDS011;74888;40.196;44.560;2024-01-10T00:14:23;13.68;;;7.82;;
82952;SDS011;74888;40.196;44.560;2024-01-10T00:16:49;15.23;;;7.90;;
82952;SDS011;74888;40.196;44.560;2024-01-10T00:19:14;14.20;;;7.82;;
82952;SDS011;74888;40.196;44.560;2024-01-10T00:21:40;14.32;;;8.05;;
82952;SDS011;74888;40.196;44.560;2024-01-10T00:24:06;14.00;;;7.78;;
82952;SDS011;74888;40.196;44.560;2024-01-10T00:26:31;13.73;;;8.13;;
82952;SDS011;74888;40.196;44.560;2024-01-10T00:28:58;12.88;;;6.97;;
82952;SDS011;74888;40.196;44.560;2024-01-10T00:31:24;13.32;;;7.95;;
82952;SDS011;74888;40.196;44.560;2024-01-10T00:33:49;17.30;;;7.95;;
82952;SDS011;74888;40.196;44.560;2024-01-10T00:36:15;13.30;;;7.25;;
82952;SDS011;74888;40.196;44.560;2024-01-10T00:38:42;13.48;;;7.60;;
82952;SDS011;74888;40.196;44.560;2024-01-10T00:41:07;16.35;;;8.25;;
82952;SDS011;74888;40.196;44.560;2024-01-10T00:43:34;13.15;;;7.43;;
82952;SDS011;74888;40.196;44.560;2024-01-10T00:46:00;13.45;;;7.70;;
82952;SDS011;74888;40.196;44.560;2024-01-10T00:48:25;13.45;;;7.93;;
82952;SDS011;74888;40.196;44.560;2024-01-10T00:50:51;13.20;;;7.40;;
82952;SDS011;74888;40.196;44.560;2024-01-10T00:53:17;15.18;;;7.75;;
82952;SDS011;74888;40.196;44.560;2024-01-10T00:55:42;16.50;;;7.97;;
82952;SDS011;74888;40.196;44.560;2024-01-10T00:58:08;14.80;;;7.88;;
82952;SDS011;74888;40.196;44.560;2024-01-10T01:00:34;15.30;;;8.10;;
82952;SDS011;74888;40.196;44.560;2024-01-10T01:02:59;13.65;;;7.97;;
82952;SDS011;74888;40.196;44.560;2024-01-10T01:05:25;16.08;;;8.10;;
82952;SDS011;74888;40.196;44.560;2024-01-10T01:07:51;14.10;;;7.80;;
82952;SDS011;74888;40.196;44.560;2024-01-10T01:10:16;12.05;;;7.13;;
82952;SDS011;74888;40.196;44.560;2024-01-10T01:12:43;13.05;;;7.18;;
82952;SDS011;74888;40.196;44.560;2024-01-10T01:15:10;12.35;;;6.93;;
82952;SDS011;74888;40.196;44.560;2024-01-10T01:17:36;10.85;;;6.18;;
82952;SDS011;74888;40.196;44.560;2024-01-10T01:20:02;12.98;;;7.20;;
82952;SDS011;74888;40.196;44.560;2024-01-10T01:22:30;12.40;;;7.00;;
82952;SDS011;74888;40.196;44.560;2024-01-10T01:24:56;15.13;;;7.55;;
82952;SDS011;74888;40.196;44.560;2024-01-10T01:27:22;14.20;;;7.40;;
82952;SDS011;74888;40.196;44.560;2024-01-10T01:29:48;14.13;;;7.38;;
82952;SDS011;74888;40.196;44.560;2024-01-10T01:32:14;13.27;;;6.78;;
82952;SDS011;74888;40.196;44.560;2024-01-10T01:34:40;14.48;;;8.05;;
82952;SDS011;74888;40.196;44.560;2024-01-10T01:37:07;14.40;;;7.45;;
82952;SDS011;74888;40.196;44.560;2024-01-10T01:39:32;18.13;;;7.35;;
82952;SDS011;74888;40.196;44.560;2024-01-10T01:41:58;13.52;;;6.70;;
82952;SDS011;74888;40.196;44.560;2024-01-10T01:44:25;14.25;;;6.78;;
82952;SDS011;74888;40.196;44.560;2024-01-10T01:46:50;10.45;;;6.07;;
82952;SDS011;74888;40.196;44.560;2024-01-10T01:49:16;12.30;;;6.15;;
82952;SDS011;74888;40.196;44.560;2024-01-10T01:51:42;10.48;;;5.75;;
82952;SDS011;74888;40.196;44.560;2024-01-10T01:54:08;10.13;;;5.40;;
82952;SDS011;74888;40.196;44.560;2024-01-10T01:56:38;10.05;;;5.18;;
82952;SDS011;74888;40.196;44.560;2024-01-10T01:59:04;9.68;;;5.45;;
82952;SDS011;74888;40.196;44.560;2024-01-10T02:01:30;9.45;;;4.95;;
82952;SDS011;74888;40.196;44.560;2024-01-10T02:03:56;10.63;;;5.03;;
82952;SDS011;74888;40.196;44.560;2024-01-10T02:06:22;10.73;;;5.28;;
82952;SDS011;74888;40.196;44.560;2024-01-10T02:08:48;9.85;;;5.28;;
82952;SDS011;74888;40.196;44.560;2024-01-10T02:11:14;12.23;;;5.60;;
82952;SDS011;74888;40.196;44.560;2024-01-10T02:13:40;11.70;;;5.22;;
82952;SDS011;74888;40.196;44.560;2024-01-10T02:16:06;10.55;;;5.95;;
82952;SDS011;74888;40.196;44.560;2024-01-10T02:18:32;12.85;;;5.70;;
82952;SDS011;74888;40.196;44.560;2024-01-10T02:21:00;10.40;;;5.45;;
82952;SDS011;74888;40.196;44.560;2024-01-10T02:23:27;10.80;;;5.35;;
82952;SDS011;74888;40.196;44.560;2024-01-10T02:25:54;12.48;;;5.65;;
82952;SDS011;74888;40.196;44.560;2024-01-10T02:28:21;12.52;;;5.78;;
82952;SDS011;74888;40.196;44.560;2024-01-10T02:30:49;9.85;;;5.55;;
82952;SDS011;74888;40.196;44.560;2024-01-10T02:33:17;9.27;;;4.65;;
82952;SDS011;74888;40.196;44.560;2024-01-10T02:35:42;11.60;;;4.90;;
82952;SDS011;74888;40.196;44.560;2024-01-10T02:38:08;11.77;;;5.40;;
82952;SDS011;74888;40.196;44.560;2024-01-10T02:40:34;11.15;;;4.88;;
82952;SDS011;74888;40.196;44.560;2024-01-10T02:42:59;10.25;;;5.38;;
82952;SDS011;74888;40.196;44.560;2024-01-10T02:45:25;10.93;;;5.13;;
82952;SDS011;74888;40.196;44.560;2024-01-10T02:47:51;9.45;;;5.10;;
82952;SDS011;74888;40.196;44.560;2024-01-10T02:50:16;9.80;;;5.45;;
82952;SDS011;74888;40.196;44.560;2024-01-10T02:52:42;10.57;;;5.07;;
82952;SDS011;74888;40.196;44.560;2024-01-10T02:55:08;10.32;;;5.40;;
82952;SDS011;74888;40.196;44.560;2024-01-10T02:57:34;10.82;;;5.32;;
82952;SDS011;74888;40.196;44.560;2024-01-10T02:59:59;10.63;;;5.18;;
82952;SDS011;74888;40.196;44.560;2024-01-10T03:02:25;10.43;;;5.43;;
82952;SDS011;74888;40.196;44.560;2024-01-10T03:04:52;10.80;;;5.03;;
82952;SDS011;74888;40.196;44.560;2024-01-10T03:07:18;11.10;;;5.63;;
82952;SDS011;74888;40.196;44.560;2024-01-10T03:09:43;12.13;;;5.97;;
82952;SDS011;74888;40.196;44.560;2024-01-10T03:12:10;10.02;;;6.03;;
82952;SDS011;74888;40.196;44.560;2024-01-10T03:14:38;11.05;;;5.85;;
82952;SDS011;74888;40.196;44.560;2024-01-10T03:17:05;10.80;;;5.45;;
82952;SDS011;74888;40.196;44.560;2024-01-10T03:19:31;11.27;;;5.90;;
82952;SDS011;74888;40.196;44.560;2024-01-10T03:21:57;12.77;;;6.07;;
82952;SDS011;74888;40.196;44.560;2024-01-10T03:24:22;9.30;;;5.55;;
82952;SDS011;74888;40.196;44.560;2024-01-10T03:26:51;10.23;;;5.03;;
82952;SDS011;74888;40.196;44.560;2024-01-10T03:29:17;11.00;;;5.57;;
82952;SDS011;74888;40.196;44.560;2024-01-10T03:31:45;13.15;;;6.07;;
82952;SDS011;74888;40.196;44.560;2024-01-10T03:34:10;11.63;;;5.63;;
82952;SDS011;74888;40.196;44.560;2024-01-10T03:36:42;12.20;;;5.78;;
82952;SDS011;74888;40.196;44.560;2024-01-10T03:39:07;11.68;;;5.72;;
82952;SDS011;74888;40.196;44.560;2024-01-10T03:41:35;12.98;;;5.63;;
82952;SDS011;74888;40.196;44.560;2024-01-10T03:44:00;12.07;;;5.70;;
82952;SDS011;74888;40.196;44.560;2024-01-10T03:46:26;12.18;;;5.65;;
82952;SDS011;74888;40.196;44.560;2024-01-10T03:48:53;13.15;;;6.57;;
82952;SDS011;74888;40.196;44.560;2024-01-10T03:51:19;11.50;;;6.10;;
82952;SDS011;74888;40.196;44.560;2024-01-10T03:53:45;13.57;;;6.65;;
82952;SDS011;74888;40.196;44.560;2024-01-10T03:56:11;11.95;;;6.35;;
82952;SDS011;74888;40.196;44.560;2024-01-10T03:58:37;12.70;;;6.30;;
82952;SDS011;74888;40.196;44.560;2024-01-10T04:01:06;11.05;;;6.25;;
82952;SDS011;74888;40.196;44.560;2024-01-10T04:03:34;27.25;;;11.13;;
82952;SDS011;74888;40.196;44.560;2024-01-10T04:06:00;16.58;;;7.07;;
82952;SDS011;74888;40.196;44.560;2024-01-10T04:08:27;20.00;;;9.52;;
82952;SDS011;74888;40.196;44.560;2024-01-10T04:10:53;40.83;;;16.67;;
82952;SDS011;74888;40.196;44.560;2024-01-10T04:13:18;21.23;;;9.65;;
82952;SDS011;74888;40.196;44.560;2024-01-10T04:15:44;13.55;;;7.03;;
82952;SDS011;74888;40.196;44.560;2024-01-10T04:18:10;15.52;;;6.80;;
82952;SDS011;74888;40.196;44.560;2024-01-10T04:20:36;10.88;;;5.53;;
82952;SDS011;74888;40.196;44.560;2024-01-10T04:23:02;13.02;;;6.47;;
82952;SDS011;74888;40.196;44.560;2024-01-10T04:25:27;17.95;;;6.30;;
82952;SDS011;74888;40.196;44.560;2024-01-10T04:27:53;12.02;;;6.05;;
82952;SDS011;74888;40.196;44.560;2024-01-10T04:30:20;11.80;;;5.68;;
82952;SDS011;74888;40.196;44.560;2024-01-10T04:32:46;11.70;;;5.53;;
82952;SDS011;74888;40.196;44.560;2024-01-10T04:35:12;11.60;;;5.88;;
82952;SDS011;74888;40.196;44.560;2024-01-10T04:37:37;13.20;;;6.18;;
82952;SDS011;74888;40.196;44.560;2024-01-10T04:40:04;13.65;;;6.45;;
82952;SDS011;74888;40.196;44.560;2024-01-10T04:42:30;16.88;;;7.70;;
82952;SDS011;74888;40.196;44.560;2024-01-10T04:44:56;14.00;;;6.82;;
82952;SDS011;74888;40.196;44.560;2024-01-10T04:47:23;13.25;;;7.00;;
82952;SDS011;74888;40.196;44.560;2024-01-10T04:49:48;14.13;;;6.45;;
82952;SDS011;74888;40.196;44.560;2024-01-10T04:52:14;16.00;;;6.90;;
82952;SDS011;74888;40.196;44.560;2024-01-10T04:54:39;18.33;;;6.72;;
82952;SDS011;74888;40.196;44.560;2024-01-10T04:57:05;22.30;;;7.32;;
82952;SDS011;74888;40.196;44.560;2024-01-10T04:59:32;26.60;;;7.40;;
82952;SDS011;74888;40.196;44.560;2024-01-10T05:01:58;26.48;;;7.90;;
82952;SDS011;74888;40.196;44.560;2024-01-10T05:04:24;22.35;;;7.63;;
82952;SDS011;74888;40.196;44.560;2024-01-10T05:06:51;18.35;;;7.57;;
82952;SDS011;74888;40.196;44.560;2024-01-10T05:09:17;16.35;;;7.45;;
82952;SDS011;74888;40.196;44.560;2024-01-10T05:11:43;16.63;;;6.95;;
82952;SDS011;74888;40.196;44.560;2024-01-10T05:14:12;16.95;;;7.28;;
82952;SDS011;74888;40.196;44.560;2024-01-10T05:16:39;19.40;;;7.95;;
82952;SDS011;74888;40.196;44.560;2024-01-10T05:19:04;15.32;;;7.25;;
82952;SDS011;74888;40.196;44.560;2024-01-10T05:21:31;13.98;;;6.90;;
82952;SDS011;74888;40.196;44.560;2024-01-10T05:23:58;13.93;;;6.97;;
82952;SDS011;74888;40.196;44.560;2024-01-10T05:26:24;16.58;;;6.93;;
82952;SDS011;74888;40.196;44.560;2024-01-10T05:28:50;16.00;;;7.18;;
82952;SDS011;74888;40.196;44.560;2024-01-10T05:31:15;13.57;;;7.47;;
82952;SDS011;74888;40.196;44.560;2024-01-10T05:33:42;15.85;;;7.43;;
82952;SDS011;74888;40.196;44.560;2024-01-10T05:36:08;16.30;;;7.60;;
82952;SDS011;74888;40.196;44.560;2024-01-10T05:38:37;14.40;;;7.35;;
82952;SDS011;74888;40.196;44.560;2024-01-10T05:41:03;15.63;;;7.88;;
82952;SDS011;74888;40.196;44.560;2024-01-10T05:43:29;16.27;;;8.13;;
82952;SDS011;74888;40.196;44.560;2024-01-10T05:45:55;17.10;;;8.80;;
82952;SDS011;74888;40.196;44.560;2024-01-10T05:48:20;17.55;;;8.48;;
82952;SDS011;74888;40.196;44.560;2024-01-10T05:50:46;20.33;;;8.07;;
82952;SDS011;74888;40.196;44.560;2024-01-10T05:53:12;21.73;;;9.20;;
82952;SDS011;74888;40.196;44.560;2024-01-10T05:55:42;15.55;;;8.45;;
82952;SDS011;74888;40.196;44.560;2024-01-10T05:58:10;15.73;;;7.72;;
82952;SDS011;74888;40.196;44.560;2024-01-10T06:00:37;17.95;;;8.65;;
82952;SDS011;74888;40.196;44.560;2024-01-10T06:03:04;20.38;;;8.90;;
82952;SDS011;74888;40.196;44.560;2024-01-10T06:05:29;16.52;;;9.27;;
82952;SDS011;74888;40.196;44.560;2024-01-10T06:07:56;23.70;;;9.60;;
82952;SDS011;74888;40.196;44.560;2024-01-10T06:10:22;22.08;;;10.02;;
82952;SDS011;74888;40.196;44.560;2024-01-10T06:12:48;18.80;;;10.02;;
82952;SDS011;74888;40.196;44.560;2024-01-10T06:15:14;19.50;;;10.25;;
82952;SDS011;74888;40.196;44.560;2024-01-10T06:17:39;23.67;;;12.38;;
82952;SDS011;74888;40.196;44.560;2024-01-10T06:20:05;24.25;;;12.27;;
82952;SDS011;74888;40.196;44.560;2024-01-10T06:22:32;24.58;;;11.48;;
82952;SDS011;74888;40.196;44.560;2024-01-10T06:24:58;25.13;;;12.77;;
82952;SDS011;74888;40.196;44.560;2024-01-10T06:27:23;22.90;;;10.35;;
82952;SDS011;74888;40.196;44.560;2024-01-10T06:29:49;20.27;;;10.82;;
82952;SDS011;74888;40.196;44.560;2024-01-10T06:32:15;24.92;;;12.18;;
82952;SDS011;74888;40.196;44.560;2024-01-10T06:34:40;22.88;;;12.30;;
82952;SDS011;74888;40.196;44.560;2024-01-10T06:37:07;25.27;;;12.63;;
82952;SDS011;74888;40.196;44.560;2024-01-10T06:42:03;22.08;;;11.60;;
82952;SDS011;74888;40.196;44.560;2024-01-10T06:44:31;20.85;;;11.60;;
82952;SDS011;74888;40.196;44.560;2024-01-10T06:46:56;25.63;;;11.55;;
82952;SDS011;74888;40.196;44.560;2024-01-10T06:49:23;23.63;;;12.20;;
82952;SDS011;74888;40.196;44.560;2024-01-10T06:51:48;24.25;;;11.70;;
82952;SDS011;74888;40.196;44.560;2024-01-10T06:54:14;24.27;;;11.23;;
82952;SDS011;74888;40.196;44.560;2024-01-10T06:56:39;22.83;;;12.13;;
82952;SDS011;74888;40.196;44.560;2024-01-10T06:59:06;22.20;;;12.30;;
82952;SDS011;74888;40.196;44.560;2024-01-10T07:01:31;25.08;;;13.48;;
82952;SDS011;74888;40.196;44.560;2024-01-10T07:03:58;24.70;;;12.38;;
82952;SDS011;74888;40.196;44.560;2024-01-10T07:06:24;33.45;;;17.67;;
82952;SDS011;74888;40.196;44.560;2024-01-10T07:08:51;22.20;;;12.90;;
82952;SDS011;74888;40.196;44.560;2024-01-10T07:11:17;27.55;;;13.82;;
82952;SDS011;74888;40.196;44.560;2024-01-10T07:13:45;31.17;;;16.15;;
82952;SDS011;74888;40.196;44.560;2024-01-10T07:16:12;39.85;;;19.30;;
82952;SDS011;74888;40.196;44.560;2024-01-10T07:18:41;32.60;;;15.23;;
82952;SDS011;74888;40.196;44.560;2024-01-10T07:21:08;58.85;;;27.80;;
82952;SDS011;74888;40.196;44.560;2024-01-10T07:23:34;29.30;;;14.32;;
82952;SDS011;74888;40.196;44.560;2024-01-10T07:26:00;25.55;;;12.45;;
82952;SDS011;74888;40.196;44.560;2024-01-10T07:28:26;24.02;;;12.10;;
82952;SDS011;74888;40.196;44.560;2024-01-10T07:30:52;24.17;;;12.20;;
82952;SDS011;74888;40.196;44.560;2024-01-10T07:33:20;24.63;;;13.13;;
82952;SDS011;74888;40.196;44.560;2024-01-10T07:35:46;28.55;;;13.05;;
82952;SDS011;74888;40.196;44.560;2024-01-10T07:38:11;25.27;;;12.55;;
82952;SDS011;74888;40.196;44.560;2024-01-10T07:40:37;32.75;;;13.77;;
82952;SDS011;74888;40.196;44.560;2024-01-10T07:43:04;22.95;;;12.90;;
82952;SDS011;74888;40.196;44.560;2024-01-10T07:45:30;22.58;;;12.35;;
82952;SDS011;74888;40.196;44.560;2024-01-10T07:47:55;24.45;;;11.77;;
82952;SDS011;74888;40.196;44.560;2024-01-10T07:50:21;26.50;;;12.18;;
82952;SDS011;74888;40.196;44.560;2024-01-10T07:52:49;25.40;;;12.68;;
82952;SDS011;74888;40.196;44.560;2024-01-10T07:55:14;24.23;;;13.38;;
82952;SDS011;74888;40.196;44.560;2024-01-10T07:57:41;27.05;;;12.35;;
82952;SDS011;74888;40.196;44.560;2024-01-10T08:00:07;28.08;;;13.25;;
82952;SDS011;74888;40.196;44.560;2024-01-10T08:02:38;21.70;;;12.15;;
82952;SDS011;74888;40.196;44.560;2024-01-10T08:05:04;29.55;;;12.88;;
82952;SDS011;74888;40.196;44.560;2024-01-10T08:07:31;22.38;;;12.68;;
82952;SDS011;74888;40.196;44.560;2024-01-10T08:09:59;29.10;;;12.90;;
82952;SDS011;74888;40.196;44.560;2024-01-10T08:12:25;26.85;;;14.25;;
82952;SDS011;74888;40.196;44.560;2024-01-10T08:14:51;28.35;;;14.48;;
82952;SDS011;74888;40.196;44.560;2024-01-10T08:17:17;31.33;;;15.60;;
82952;SDS011;74888;40.196;44.560;2024-01-10T08:19:42;31.90;;;16.95;;
82952;SDS011;74888;40.196;44.560;2024-01-10T08:22:08;31.83;;;17.25;;
82952;SDS011;74888;40.196;44.560;2024-01-10T08:24:34;32.50;;;16.48;;
82952;SDS011;74888;40.196;44.560;2024-01-10T08:27:00;31.67;;;17.90;;
82952;SDS011;74888;40.196;44.560;2024-01-10T08:29:27;29.17;;;14.98;;
82952;SDS011;74888;40.196;44.560;2024-01-10T08:31:57;27.30;;;14.98;;
82952;SDS011;74888;40.196;44.560;2024-01-10T08:34:23;24.40;;;13.00;;
82952;SDS011;74888;40.196;44.560;2024-01-10T08:36:49;26.70;;;13.05;;
82952;SDS011;74888;40.196;44.560;2024-01-10T08:39:18;22.98;;;12.65;;
82952;SDS011;74888;40.196;44.560;2024-01-10T08:41:45;26.20;;;13.45;;
82952;SDS011;74888;40.196;44.560;2024-01-10T08:44:10;25.73;;;13.30;;
82952;SDS011;74888;40.196;44.560;2024-01-10T08:46:36;29.90;;;15.20;;
82952;SDS011;74888;40.196;44.560;2024-01-10T08:49:03;25.10;;;14.07;;
82952;SDS011;74888;40.196;44.560;2024-01-10T08:51:29;24.15;;;13.98;;
82952;SDS011;74888;40.196;44.560;2024-01-10T08:53:55;25.52;;;13.50;;
82952;SDS011;74888;40.196;44.560;2024-01-10T08:56:22;25.75;;;14.55;;
82952;SDS011;74888;40.196;44.560;2024-01-10T08:58:47;31.05;;;15.55;;
82952;SDS011;74888;40.196;44.560;2024-01-10T09:01:13;26.73;;;13.82;;
82952;SDS011;74888;40.196;44.560;2024-01-10T09:03:39;24.77;;;14.38;;
82952;SDS011;74888;40.196;44.560;2024-01-10T09:06:04;26.88;;;13.70;;
82952;SDS011;74888;40.196;44.560;2024-01-10T09:08:33;23.52;;;13.52;;
82952;SDS011;74888;40.196;44.560;2024-01-10T09:10:59;27.77;;;14.32;;
82952;SDS011;74888;40.196;44.560;2024-01-10T09:13:25;24.15;;;14.20;;
82952;SDS011;74888;40.196;44.560;2024-01-10T09:15:53;31.88;;;18.63;;
82952;SDS011;74888;40.196;44.560;2024-01-10T09:18:19;29.10;;;15.18;;
82952;SDS011;74888;40.196;44.560;2024-01-10T09:20:44;29.17;;;16.17;;
82952;SDS011;74888;40.196;44.560;2024-01-10T09:23:10;27.02;;;14.32;;
82952;SDS011;74888;40.196;44.560;2024-01-10T09:25:36;29.33;;;16.33;;
82952;SDS011;74888;40.196;44.560;2024-01-10T09:28:03;31.75;;;16.63;;
82952;SDS011;74888;40.196;44.560;2024-01-10T09:30:33;32.60;;;16.42;;
82952;SDS011;74888;40.196;44.560;2024-01-10T09:32:59;31.00;;;15.70;;
82952;SDS011;74888;40.196;44.560;2024-01-10T09:35:25;34.45;;;16.33;;
82952;SDS011;74888;40.196;44.560;2024-01-10T09:37:51;32.08;;;17.27;;
82952;SDS011;74888;40.196;44.560;2024-01-10T09:40:18;31.83;;;17.70;;
82952;SDS011;74888;40.196;44.560;2024-01-10T09:42:48;39.60;;;17.73;;
82952;SDS011;74888;40.196;44.560;2024-01-10T09:45:16;32.08;;;16.60;;
82952;SDS011;74888;40.196;44.560;2024-01-10T09:47:45;31.50;;;16.17;;
82952;SDS011;74888;40.196;44.560;2024-01-10T09:50:14;35.72;;;17.35;;
82952;SDS011;74888;40.196;44.560;2024-01-10T09:52:41;32.53;;;16.33;;
82952;SDS011;74888;40.196;44.560;2024-01-10T09:55:15;31.77;;;16.88;;
82952;SDS011;74888;40.196;44.560;2024-01-10T09:57:41;39.03;;;17.25;;
82952;SDS011;74888;40.196;44.560;2024-01-10T10:00:08;30.38;;;16.45;;
82952;SDS011;74888;40.196;44.560;2024-01-10T10:02:36;32.97;;;16.13;;
82952;SDS011;74888;40.196;44.560;2024-01-10T10:05:08;32.85;;;17.10;;
82952;SDS011;74888;40.196;44.560;2024-01-10T10:10:14;40.92;;;18.52;;
82952;SDS011;74888;40.196;44.560;2024-01-10T10:12:42;34.83;;;17.83;;
82952;SDS011;74888;40.196;44.560;2024-01-10T10:15:14;28.77;;;16.58;;
82952;SDS011;74888;40.196;44.560;2024-01-10T10:17:42;37.95;;;18.23;;
82952;SDS011;74888;40.196;44.560;2024-01-10T10:20:13;29.67;;;15.82;;
82952;SDS011;74888;40.196;44.560;2024-01-10T10:23:08;32.05;;;16.85;;
82952;SDS011;74888;40.196;44.560;2024-01-10T10:25:42;35.55;;;17.15;;
82952;SDS011;74888;40.196;44.560;2024-01-10T10:28:10;32.00;;;15.75;;
82952;SDS011;74888;40.196;44.560;2024-01-10T10:30:36;31.98;;;16.20;;
82952;SDS011;74888;40.196;44.560;2024-01-10T10:33:02;32.42;;;16.85;;
82952;SDS011;74888;40.196;44.560;2024-01-10T10:35:28;27.67;;;16.13;;
82952;SDS011;74888;40.196;44.560;2024-01-10T10:37:54;32.53;;;17.05;;
82952;SDS011;74888;40.196;44.560;2024-01-10T10:40:20;37.33;;;17.90;;
82952;SDS011;74888;40.196;44.560;2024-01-10T10:42:54;32.13;;;16.95;;
82952;SDS011;74888;40.196;44.560;2024-01-10T10:45:22;32.97;;;15.93;;
82952;SDS011;74888;40.196;44.560;2024-01-10T10:47:56;29.90;;;15.75;;
82952;SDS011;74888;40.196;44.560;2024-01-10T10:50:24;30.83;;;16.42;;
82952;SDS011;74888;40.196;44.560;2024-01-10T10:52:53;29.00;;;16.13;;
82952;SDS011;74888;40.196;44.560;2024-01-10T10:55:21;29.38;;;16.65;;
82952;SDS011;74888;40.196;44.560;2024-01-10T10:57:49;34.80;;;18.48;;
82952;SDS011;74888;40.196;44.560;2024-01-10T11:00:15;32.08;;;17.52;;
82952;SDS011;74888;40.196;44.560;2024-01-10T11:02:45;34.00;;;18.38;;
82952;SDS011;74888;40.196;44.560;2024-01-10T11:05:11;34.10;;;17.17;;
82952;SDS011;74888;40.196;44.560;2024-01-10T11:07:39;31.73;;;19.15;;
82952;SDS011;74888;40.196;44.560;2024-01-10T11:10:08;35.20;;;19.77;;
82952;SDS011;74888;40.196;44.560;2024-01-10T11:12:45;34.63;;;19.17;;
82952;SDS011;74888;40.196;44.560;2024-01-10T11:15:44;33.70;;;18.42;;
82952;SDS011;74888;40.196;44.560;2024-01-10T11:21:38;35.55;;;17.63;;
82952;SDS011;74888;40.196;44.560;2024-01-10T11:24:28;38.05;;;20.30;;
82952;SDS011;74888;40.196;44.560;2024-01-10T11:27:07;34.85;;;17.83;;
82952;SDS011;74888;40.196;44.560;2024-01-10T11:29:39;34.33;;;18.55;;
82952;SDS011;74888;40.196;44.560;2024-01-10T11:32:06;35.95;;;17.98;;
82952;SDS011;74888;40.196;44.560;2024-01-10T11:34:35;40.05;;;18.73;;
82952;SDS011;74888;40.196;44.560;2024-01-10T11:37:10;34.25;;;19.00;;
82952;SDS011;74888;40.196;44.560;2024-01-10T11:39:40;32.63;;;17.95;;
82952;SDS011;74888;40.196;44.560;2024-01-10T11:42:07;32.67;;;16.17;;
82952;SDS011;74888;40.196;44.560;2024-01-10T11:44:34;33.10;;;16.10;;
82952;SDS011;74888;40.196;44.560;2024-01-10T11:47:11;26.90;;;13.88;;
82952;SDS011;74888;40.196;44.560;2024-01-10T11:49:40;28.25;;;15.18;;
82952;SDS011;74888;40.196;44.560;2024-01-10T11:52:06;33.35;;;20.27;;
82952;SDS011;74888;40.196;44.560;2024-01-10T11:54:38;31.95;;;16.83;;
82952;SDS011;74888;40.196;44.560;2024-01-10T11:57:09;28.52;;;14.27;;
82952;SDS011;74888;40.196;44.560;2024-01-10T11:59:38;25.75;;;14.13;;
82952;SDS011;74888;40.196;44.560;2024-01-10T12:02:07;30.38;;;15.23;;
82952;SDS011;74888;40.196;44.560;2024-01-10T12:04:33;28.58;;;14.85;;
82952;SDS011;74888;40.196;44.560;2024-01-10T12:07:01;30.75;;;15.32;;
82952;SDS011;74888;40.196;44.560;2024-01-10T12:09:29;31.27;;;16.05;;
82952;SDS011;74888;40.196;44.560;2024-01-10T12:11:55;24.55;;;15.15;;
82952;SDS011;74888;40.196;44.560;2024-01-10T12:14:21;33.70;;;16.30;;
82952;SDS011;74888;40.196;44.560;2024-01-10T12:16:47;30.65;;;14.32;;
82952;SDS011;74888;40.196;44.560;2024-01-10T12:19:14;34.28;;;15.05;;
82952;SDS011;74888;40.196;44.560;2024-01-10T12:21:40;27.63;;;14.15;;
82952;SDS011;74888;40.196;44.560;2024-01-10T12:24:07;27.35;;;13.88;;
82952;SDS011;74888;40.196;44.560;2024-01-10T12:26:33;25.42;;;10.85;;
82952;SDS011;74888;40.196;44.560;2024-01-10T12:28:59;22.73;;;11.35;;
82952;SDS011;74888;40.196;44.560;2024-01-10T12:31:29;21.35;;;9.70;;
82952;SDS011;74888;40.196;44.560;2024-01-10T12:33:55;22.52;;;12.10;;
82952;SDS011;74888;40.196;44.560;2024-01-10T12:36:22;22.02;;;10.50;;
82952;SDS011;74888;40.196;44.560;2024-01-10T12:38:47;26.00;;;12.20;;
82952;SDS011;74888;40.196;44.560;2024-01-10T12:41:18;44.47;;;16.65;;
82952;SDS011;74888;40.196;44.560;2024-01-10T12:43:54;36.65;;;15.40;;
82952;SDS011;74888;40.196;44.560;2024-01-10T12:46:21;34.42;;;14.38;;
82952;SDS011;74888;40.196;44.560;2024-01-10T12:49:03;22.85;;;12.60;;
82952;SDS011;74888;40.196;44.560;2024-01-10T12:51:32;29.52;;;13.82;;
82952;SDS011;74888;40.196;44.560;2024-01-10T12:54:01;25.58;;;12.02;;
82952;SDS011;74888;40.196;44.560;2024-01-10T12:56:29;26.90;;;11.25;;
82952;SDS011;74888;40.196;44.560;2024-01-10T12:58:55;20.42;;;11.50;;
82952;SDS011;74888;40.196;44.560;2024-01-10T13:01:21;24.92;;;12.65;;
82952;SDS011;74888;40.196;44.560;2024-01-10T13:03:47;25.23;;;11.05;;
82952;SDS011;74888;40.196;44.560;2024-01-10T13:06:17;25.67;;;11.68;;
82952;SDS011;74888;40.196;44.560;2024-01-10T13:08:45;19.80;;;10.38;;
82952;SDS011;74888;40.196;44.560;2024-01-10T13:11:12;24.63;;;11.82;;
82952;SDS011;74888;40.196;44.560;2024-01-10T13:13:39;23.55;;;12.80;;
82952;SDS011;74888;40.196;44.560;2024-01-10T13:16:06;26.38;;;13.57;;
82952;SDS011;74888;40.196;44.560;2024-01-10T13:18:31;29.25;;;14.30;;
82952;SDS011;74888;40.196;44.560;2024-01-10T13:20:57;38.75;;;13.90;;
82952;SDS011;74888;40.196;44.560;2024-01-10T13:23:23;22.80;;;12.23;;
82952;SDS011;74888;40.196;44.560;2024-01-10T13:25:52;22.88;;;12.82;;
82952;SDS011;74888;40.196;44.560;2024-01-10T13:28:18;23.60;;;13.05;;
82952;SDS011;74888;40.196;44.560;2024-01-10T13:30:44;24.42;;;14.48;;
82952;SDS011;74888;40.196;44.560;2024-01-10T13:33:10;26.33;;;14.75;;
82952;SDS011;74888;40.196;44.560;2024-01-10T13:35:37;21.83;;;11.90;;
82952;SDS011;74888;40.196;44.560;2024-01-10T13:38:03;21.50;;;10.63;;
82952;SDS011;74888;40.196;44.560;2024-01-10T13:40:31;20.88;;;10.40;;
82952;SDS011;74888;40.196;44.560;2024-01-10T13:42:59;30.30;;;15.32;;
82952;SDS011;74888;40.196;44.560;2024-01-10T13:45:29;22.02;;;12.30;;
82952;SDS011;74888;40.196;44.560;2024-01-10T13:47:55;27.60;;;14.10;;
82952;SDS011;74888;40.196;44.560;2024-01-10T13:50:21;23.63;;;11.82;;
82952;SDS011;74888;40.196;44.560;2024-01-10T13:52:47;20.80;;;11.38;;
82952;SDS011;74888;40.196;44.560;2024-01-10T13:55:12;21.90;;;11.25;;
82952;SDS011;74888;40.196;44.560;2024-01-10T13:57:38;24.13;;;11.40;;
82952;SDS011;74888;40.196;44.560;2024-01-10T14:00:05;23.50;;;12.13;;
82952;SDS011;74888;40.196;44.560;2024-01-10T14:02:34;21.77;;;11.88;;
82952;SDS011;74888;40.196;44.560;2024-01-10T14:05:01;21.75;;;12.63;;
82952;SDS011;74888;40.196;44.560;2024-01-10T14:07:30;28.73;;;16.92;;
82952;SDS011;74888;40.196;44.560;2024-01-10T14:09:57;29.60;;;16.77;;
82952;SDS011;74888;40.196;44.560;2024-01-10T14:12:23;23.75;;;13.88;;
82952;SDS011;74888;40.196;44.560;2024-01-10T14:14:49;34.25;;;16.85;;
82952;SDS011;74888;40.196;44.560;2024-01-10T14:17:15;51.00;;;22.95;;
82952;SDS011;74888;40.196;44.560;2024-01-10T14:19:41;39.33;;;19.08;;
82952;SDS011;74888;40.196;44.560;2024-01-10T14:22:08;28.73;;;15.55;;